createdAt,value
2017-08-20T17:52:30.799Z,848
2017-08-20T17:53:11.321Z,840
2017-08-20T17:53:51.864Z,828
2017-08-20T17:54:32.400Z,812
2017-08-20T17:55:12.938Z,800
2017-08-20T17:55:53.493Z,784
2017-08-20T17:56:34.032Z,772
2017-08-20T17:57:14.585Z,760
2017-08-20T17:57:55.099Z,748
2017-08-20T17:58:35.639Z,732
2017-08-20T17:59:16.182Z,716
2017-08-20T17:59:56.709Z,696
2017-08-20T18:00:37.243Z,680
2017-08-20T18:01:17.786Z,668
2017-08-20T18:01:58.328Z,656
2017-08-20T18:02:38.864Z,672
2017-08-20T18:03:19.403Z,680
2017-08-20T18:03:59.965Z,660
2017-08-20T18:04:40.503Z,632
2017-08-20T18:05:21.044Z,600
2017-08-20T18:06:01.577Z,588
2017-08-20T18:06:42.110Z,568
2017-08-20T18:07:22.654Z,548
2017-08-20T18:08:03.200Z,540
2017-08-20T18:08:43.747Z,532
2017-08-20T18:09:24.286Z,516
2017-08-20T18:10:04.823Z,508
2017-08-20T18:10:45.360Z,496
2017-08-20T18:11:25.900Z,484
2017-08-20T18:12:06.442Z,472
2017-08-20T18:12:46.978Z,460
2017-08-20T18:13:27.520Z,444
2017-08-20T18:14:08.060Z,432
2017-08-20T18:14:48.602Z,420
2017-08-20T18:15:29.142Z,408
2017-08-20T18:16:09.684Z,392
2017-08-20T18:16:50.222Z,376
2017-08-20T18:17:30.765Z,364
2017-08-20T18:18:11.301Z,352
2017-08-20T18:18:51.851Z,340
2017-08-20T18:19:32.404Z,332
2017-08-20T18:20:12.953Z,320
2017-08-20T18:20:53.499Z,312
2017-08-20T18:21:34.069Z,296
2017-08-20T18:22:14.582Z,288
2017-08-20T18:22:55.114Z,276
2017-08-20T18:23:35.702Z,264
2017-08-20T18:24:16.244Z,252
2017-08-20T18:24:56.786Z,240
2017-08-20T18:25:37.393Z,232
2017-08-20T18:26:18.126Z,224
2017-08-20T18:26:58.785Z,212
2017-08-20T18:27:39.322Z,204
2017-08-20T18:28:19.853Z,196
2017-08-20T18:29:00.716Z,184
2017-08-20T18:29:41.403Z,176
2017-08-20T18:30:22.030Z,168
2017-08-20T18:31:02.562Z,160
2017-08-20T18:31:44.011Z,152
2017-08-20T18:32:24.692Z,144
2017-08-20T18:33:06.008Z,136
2017-08-20T18:33:46.556Z,128
2017-08-20T18:34:27.327Z,120
2017-08-20T18:35:08.030Z,116
2017-08-20T18:35:48.785Z,112
2017-08-20T18:36:29.562Z,104
2017-08-20T18:37:11.607Z,96
2017-08-20T18:37:52.909Z,92
2017-08-20T18:38:33.445Z,88
2017-08-20T18:39:14.188Z,84
2017-08-20T18:39:54.925Z,80
2017-08-20T18:40:35.627Z,80
2017-08-20T18:41:17.011Z,76
2017-08-20T18:41:57.758Z,72
2017-08-20T18:42:38.296Z,68
2017-08-20T18:43:19.038Z,64
2017-08-20T18:43:59.676Z,60
2017-08-20T18:44:40.338Z,60
2017-08-20T18:45:22.119Z,56
2017-08-20T18:46:02.712Z,52
2017-08-20T18:46:43.494Z,48
2017-08-20T18:47:24.204Z,48
2017-08-20T18:48:04.733Z,44
2017-08-20T18:48:45.404Z,36
2017-08-20T18:49:25.988Z,36
2017-08-20T18:50:06.529Z,32
2017-08-20T18:50:47.066Z,28
2017-08-20T18:51:27.591Z,24
2017-08-20T18:52:08.130Z,20
2017-08-20T18:52:48.771Z,16
2017-08-20T18:53:29.561Z,16
2017-08-20T18:54:10.100Z,16
2017-08-20T18:54:50.639Z,16
2017-08-20T18:55:31.182Z,12
2017-08-20T18:56:11.704Z,12
2017-08-20T18:56:52.243Z,8
2017-08-20T18:57:32.774Z,8
2017-08-20T18:58:13.313Z,8
2017-08-20T18:58:53.849Z,8
2017-08-20T18:59:34.389Z,8
2017-08-20T19:00:14.939Z,4
2017-08-20T19:00:55.484Z,8
2017-08-20T19:01:36.023Z,4
2017-08-20T19:02:16.566Z,4
2017-08-20T19:02:57.100Z,4
2017-08-20T19:03:37.642Z,0
2017-08-20T19:04:18.183Z,4
2017-08-20T19:04:58.730Z,4
2017-08-20T19:05:39.270Z,4
2017-08-20T19:06:19.808Z,0
2017-08-20T19:07:00.349Z,0
2017-08-20T19:07:40.889Z,0
2017-08-20T19:08:21.430Z,0
2017-08-20T19:09:02.201Z,0
2017-08-20T19:09:42.713Z,0
2017-08-20T19:10:23.301Z,0
2017-08-20T19:11:03.835Z,0
2017-08-20T19:11:44.363Z,0
2017-08-20T19:12:24.893Z,0
2017-08-20T19:13:05.431Z,0
2017-08-20T19:13:45.961Z,0
2017-08-20T19:14:26.492Z,0
2017-08-20T19:15:07.017Z,0
2017-08-20T19:15:47.558Z,0
2017-08-20T19:16:28.088Z,0
2017-08-20T19:17:08.627Z,0
2017-08-20T19:17:49.161Z,0
2017-08-20T19:18:29.706Z,0
2017-08-20T19:19:10.249Z,0
2017-08-20T19:19:50.786Z,0
2017-08-20T19:20:31.322Z,0
2017-08-20T19:21:11.869Z,0
2017-08-20T19:21:52.480Z,0
2017-08-20T19:22:33.021Z,0
2017-08-20T19:23:13.560Z,0
2017-08-20T19:23:54.110Z,0
2017-08-20T19:24:34.673Z,0
2017-08-20T19:25:15.216Z,0
2017-08-20T19:25:55.764Z,0
2017-08-20T19:26:36.305Z,0
2017-08-20T19:27:16.842Z,0
2017-08-20T19:27:57.379Z,0
2017-08-20T19:28:37.923Z,0
2017-08-20T19:29:18.463Z,0
2017-08-20T19:29:58.990Z,0
2017-08-20T19:30:39.525Z,0
2017-08-20T19:31:20.067Z,0
2017-08-20T19:32:00.589Z,0
2017-08-20T19:32:41.127Z,0
2017-08-20T19:33:21.655Z,0
2017-08-20T19:34:02.226Z,0
2017-08-20T19:34:42.777Z,0
2017-08-20T19:35:23.318Z,0
2017-08-20T19:36:03.836Z,0
2017-08-20T19:36:44.390Z,0
2017-08-20T19:37:24.932Z,0
2017-08-20T19:38:05.475Z,0
2017-08-20T19:38:46.004Z,0
2017-08-20T19:39:26.614Z,0
2017-08-20T19:40:07.150Z,0
2017-08-20T19:40:47.687Z,0
2017-08-20T19:41:28.228Z,0
2017-08-20T19:42:08.767Z,0
2017-08-20T19:42:49.308Z,0
2017-08-20T19:43:29.839Z,0
2017-08-20T19:44:10.368Z,0
2017-08-20T19:44:50.902Z,0
2017-08-20T19:45:31.440Z,0
2017-08-20T19:46:11.983Z,0
2017-08-20T19:46:52.516Z,0
2017-08-20T19:47:33.051Z,0
2017-08-20T19:48:13.604Z,0
2017-08-20T19:48:54.130Z,0
2017-08-20T19:49:34.662Z,0
2017-08-20T19:50:15.195Z,0
2017-08-20T19:50:55.734Z,0
2017-08-20T19:51:36.273Z,0
2017-08-20T19:52:16.805Z,0
2017-08-20T19:52:57.330Z,0
2017-08-20T19:53:37.863Z,0
2017-08-20T19:54:18.401Z,0
2017-08-20T19:54:58.941Z,0
2017-08-20T19:55:39.542Z,0
2017-08-20T19:56:20.066Z,0
2017-08-20T19:57:00.596Z,0
2017-08-20T19:57:41.172Z,0
2017-08-20T19:58:21.706Z,0
2017-08-20T19:59:02.238Z,0
2017-08-20T19:59:42.775Z,0
2017-08-20T20:00:23.312Z,0
2017-08-20T20:01:03.849Z,0
2017-08-20T20:01:44.390Z,0
2017-08-20T20:02:24.923Z,0
2017-08-20T20:03:05.460Z,0
2017-08-20T20:03:45.998Z,0
2017-08-20T20:04:26.537Z,0
2017-08-20T20:05:07.077Z,0
2017-08-20T20:05:47.618Z,0
2017-08-20T20:06:28.145Z,0
2017-08-20T20:07:08.681Z,0
2017-08-20T20:07:49.208Z,0
2017-08-20T20:08:29.754Z,0
2017-08-20T20:09:10.302Z,0
2017-08-20T20:09:50.823Z,0
2017-08-20T20:10:31.368Z,0
2017-08-20T20:11:11.900Z,0
2017-08-20T20:11:52.437Z,0
2017-08-20T20:12:32.978Z,0
2017-08-20T20:13:13.519Z,0
2017-08-20T20:13:54.057Z,0
2017-08-20T20:14:34.588Z,0
2017-08-20T20:15:15.177Z,0
2017-08-20T20:15:55.717Z,0
2017-08-20T20:16:36.269Z,0
2017-08-20T20:17:16.809Z,0
2017-08-20T20:17:57.329Z,0
2017-08-20T20:18:37.869Z,0
2017-08-20T20:19:18.409Z,0
2017-08-20T20:19:58.932Z,0
2017-08-20T20:20:39.469Z,0
2017-08-20T20:21:20.014Z,0
2017-08-20T20:22:00.555Z,0
2017-08-20T20:22:41.092Z,0
2017-08-20T20:23:21.632Z,0
2017-08-20T20:24:02.172Z,0
2017-08-20T20:24:42.711Z,0
2017-08-20T20:25:23.245Z,0
2017-08-20T20:26:03.785Z,0
2017-08-20T20:26:44.324Z,0
2017-08-20T20:27:24.863Z,0
2017-08-20T20:28:05.397Z,0
2017-08-20T20:28:45.937Z,0
2017-08-20T20:29:26.477Z,0
2017-08-20T20:30:07.010Z,0
2017-08-20T20:30:48.096Z,0
2017-08-20T20:31:29.222Z,0
2017-08-20T20:32:09.769Z,0
2017-08-20T20:32:50.307Z,0
2017-08-20T20:33:30.845Z,0
2017-08-20T20:34:11.368Z,0
2017-08-20T20:34:51.900Z,0
2017-08-20T20:35:32.429Z,0
2017-08-20T20:36:12.955Z,0
2017-08-20T20:36:53.507Z,0
2017-08-20T20:37:34.046Z,0
2017-08-20T20:38:14.658Z,0
2017-08-20T20:38:55.206Z,0
2017-08-20T20:39:35.745Z,0
2017-08-20T20:40:16.365Z,0
2017-08-20T20:40:56.900Z,0
2017-08-20T20:41:37.433Z,0
2017-08-20T20:42:17.980Z,0
2017-08-20T20:42:58.516Z,0
2017-08-20T20:43:39.061Z,0
2017-08-20T20:44:19.599Z,0
2017-08-20T20:45:00.141Z,0
2017-08-20T20:45:40.680Z,0
2017-08-20T20:46:21.218Z,0
2017-08-20T20:47:01.757Z,0
2017-08-20T20:47:42.291Z,0
2017-08-20T20:48:22.899Z,0
2017-08-20T20:49:03.474Z,0
2017-08-20T20:49:44.017Z,0
2017-08-20T20:50:24.549Z,0
2017-08-20T20:51:05.091Z,0
2017-08-20T20:51:45.629Z,0
2017-08-20T20:52:26.176Z,0
2017-08-20T20:53:06.718Z,0
2017-08-20T20:53:47.244Z,0
2017-08-20T20:54:27.785Z,0
2017-08-20T20:55:08.326Z,0
2017-08-20T20:55:48.858Z,0
2017-08-20T20:56:29.409Z,0
2017-08-20T20:57:09.936Z,0
2017-08-20T20:57:50.483Z,0
2017-08-20T20:58:31.024Z,0
2017-08-20T20:59:11.563Z,0
2017-08-20T20:59:52.100Z,0
2017-08-20T21:00:32.649Z,0
2017-08-20T21:01:13.193Z,0
2017-08-20T21:01:53.709Z,0
2017-08-20T21:02:34.246Z,0
2017-08-20T21:03:14.788Z,0
2017-08-20T21:03:55.331Z,0
2017-08-20T21:04:35.868Z,0
2017-08-20T21:05:16.403Z,0
2017-08-20T21:05:56.931Z,0
2017-08-20T21:06:37.476Z,0
2017-08-20T21:07:17.997Z,0
2017-08-20T21:07:58.541Z,0
2017-08-20T21:08:39.082Z,0
2017-08-20T21:09:19.617Z,0
2017-08-20T21:10:00.157Z,0
2017-08-20T21:10:40.691Z,0
2017-08-20T21:11:21.236Z,0
2017-08-20T21:12:01.767Z,0
2017-08-20T21:12:42.305Z,0
2017-08-20T21:13:22.846Z,0
2017-08-20T21:14:03.395Z,0
2017-08-20T21:14:43.939Z,0
2017-08-20T21:15:24.492Z,0
2017-08-20T21:16:05.019Z,0
2017-08-20T21:16:45.552Z,0
2017-08-20T21:17:26.092Z,0
2017-08-20T21:18:06.621Z,0
2017-08-20T21:18:47.151Z,0
2017-08-20T21:19:27.684Z,0
2017-08-20T21:20:08.221Z,0
2017-08-20T21:20:48.753Z,0
2017-08-20T21:21:29.283Z,0
2017-08-20T21:22:09.824Z,0
2017-08-20T21:22:50.367Z,0
2017-08-20T21:23:30.904Z,0
2017-08-20T21:24:11.437Z,0
2017-08-20T21:24:51.980Z,0
2017-08-20T21:25:32.505Z,0
2017-08-20T21:26:13.077Z,0
2017-08-20T21:26:53.570Z,0
2017-08-20T21:27:34.112Z,0
2017-08-20T21:28:14.652Z,0
2017-08-20T21:28:55.193Z,0
2017-08-20T21:29:35.734Z,0
2017-08-20T21:30:16.286Z,0
2017-08-20T21:30:56.808Z,0
2017-08-20T21:31:37.332Z,0
2017-08-20T21:32:17.870Z,0
2017-08-20T21:32:58.411Z,0
2017-08-20T21:33:38.950Z,0
2017-08-20T21:34:19.537Z,0
2017-08-20T21:35:00.010Z,0
2017-08-20T21:35:40.551Z,0
2017-08-20T21:36:21.087Z,0
2017-08-20T21:37:01.627Z,0
2017-08-20T21:37:42.174Z,0
2017-08-20T21:38:22.718Z,0
2017-08-20T21:39:03.252Z,0
2017-08-20T21:39:43.797Z,0
2017-08-20T21:40:24.334Z,0
2017-08-20T21:41:04.871Z,0
2017-08-20T21:41:45.398Z,0
2017-08-20T21:42:25.949Z,0
2017-08-20T21:43:06.470Z,0
2017-08-20T21:43:47.012Z,0
2017-08-20T21:44:27.552Z,0
2017-08-20T21:45:08.088Z,0
2017-08-20T21:45:48.633Z,0
2017-08-20T21:46:29.171Z,0
2017-08-20T21:47:09.707Z,0
2017-08-20T21:47:50.243Z,0
2017-08-20T21:48:30.781Z,0
2017-08-20T21:49:11.319Z,0
2017-08-20T21:49:51.864Z,0
2017-08-20T21:50:32.410Z,0
2017-08-20T21:51:12.943Z,0
2017-08-20T21:51:53.462Z,0
2017-08-20T21:52:33.997Z,0
2017-08-20T21:53:14.523Z,0
2017-08-20T21:53:55.051Z,0
2017-08-20T21:54:35.602Z,0
2017-08-20T21:55:17.820Z,0
2017-08-20T21:55:58.358Z,0
2017-08-20T21:56:38.901Z,0
2017-08-20T21:57:19.438Z,0
2017-08-20T21:57:59.968Z,0
2017-08-20T21:58:40.505Z,0
2017-08-20T21:59:21.047Z,0
2017-08-20T22:00:01.586Z,0
2017-08-20T22:00:42.129Z,0
2017-08-20T22:01:22.668Z,0
2017-08-20T22:02:03.203Z,0
2017-08-20T22:02:43.743Z,0
2017-08-20T22:03:24.279Z,0
2017-08-20T22:04:04.814Z,0
2017-08-20T22:04:45.346Z,0
2017-08-20T22:05:25.881Z,0
2017-08-20T22:06:06.423Z,0
2017-08-20T22:06:46.955Z,0
2017-08-20T22:07:27.496Z,0
2017-08-20T22:08:08.039Z,0
2017-08-20T22:08:48.579Z,0
2017-08-20T22:09:29.117Z,0
2017-08-20T22:10:09.655Z,0
2017-08-20T22:10:50.197Z,0
2017-08-20T22:11:30.736Z,0
2017-08-20T22:12:11.273Z,0
2017-08-20T22:12:51.820Z,0
2017-08-20T22:13:32.351Z,0
2017-08-20T22:14:12.883Z,0
2017-08-20T22:14:53.417Z,0
2017-08-20T22:15:33.942Z,0
2017-08-20T22:16:14.481Z,0
2017-08-20T22:16:55.021Z,0
2017-08-20T22:17:35.555Z,0
2017-08-20T22:18:16.092Z,0
2017-08-20T22:18:56.637Z,0
2017-08-20T22:19:37.155Z,0
2017-08-20T22:20:17.695Z,0
2017-08-20T22:20:58.234Z,0
2017-08-20T22:21:38.771Z,0
2017-08-20T22:22:19.309Z,0
2017-08-20T22:22:59.843Z,0
2017-08-20T22:23:40.376Z,0
2017-08-20T22:24:20.913Z,0
2017-08-20T22:25:01.456Z,0
2017-08-20T22:25:41.996Z,0
2017-08-20T22:26:22.542Z,0
2017-08-20T22:27:03.077Z,0
2017-08-20T22:27:43.614Z,0
2017-08-20T22:28:24.155Z,0
2017-08-20T22:29:04.695Z,0
2017-08-20T22:29:45.226Z,0
2017-08-20T22:30:25.765Z,0
2017-08-20T22:31:06.308Z,0
2017-08-20T22:31:46.843Z,0
2017-08-20T22:32:27.380Z,0
2017-08-20T22:33:07.914Z,0
2017-08-20T22:33:48.442Z,0
2017-08-20T22:34:28.975Z,0
2017-08-20T22:35:09.514Z,0
2017-08-20T22:35:50.057Z,0
2017-08-20T22:36:30.589Z,0
2017-08-20T22:37:11.137Z,0
2017-08-20T22:37:51.673Z,0
2017-08-20T22:38:32.202Z,0
2017-08-20T22:39:12.737Z,0
2017-08-20T22:39:53.280Z,0
2017-08-20T22:40:33.820Z,0
2017-08-20T22:41:14.361Z,0
2017-08-20T22:41:54.900Z,0
2017-08-20T22:42:35.427Z,0
2017-08-20T22:43:15.970Z,0
2017-08-20T22:43:56.508Z,0
2017-08-20T22:44:37.041Z,0
2017-08-20T22:45:17.578Z,0
2017-08-20T22:45:58.113Z,0
2017-08-20T22:46:38.647Z,0
2017-08-20T22:47:19.181Z,0
2017-08-20T22:47:59.722Z,0
2017-08-20T22:48:40.252Z,0
2017-08-20T22:49:20.791Z,0
2017-08-20T22:50:01.329Z,0
2017-08-20T22:50:41.866Z,0
2017-08-20T22:51:22.410Z,0
2017-08-20T22:52:02.950Z,0
2017-08-20T22:52:43.477Z,0
2017-08-20T22:53:24.014Z,0
2017-08-20T22:54:04.578Z,0
2017-08-20T22:54:45.110Z,0
2017-08-20T22:55:25.648Z,0
2017-08-20T22:56:06.191Z,0
2017-08-20T22:56:46.724Z,0
2017-08-20T22:57:27.259Z,0
2017-08-20T22:58:07.794Z,0
2017-08-20T22:58:48.331Z,0
2017-08-20T22:59:28.880Z,0
2017-08-20T23:00:09.399Z,0
2017-08-20T23:00:49.939Z,0
2017-08-20T23:01:30.479Z,0
2017-08-20T23:02:11.059Z,0
2017-08-20T23:02:51.590Z,0
2017-08-20T23:03:32.136Z,0
2017-08-20T23:04:12.660Z,0
2017-08-20T23:04:53.199Z,0
2017-08-20T23:05:33.727Z,0
2017-08-20T23:06:14.256Z,0
2017-08-20T23:06:54.794Z,0
2017-08-20T23:07:35.333Z,0
2017-08-20T23:08:15.872Z,0
2017-08-20T23:08:56.404Z,0
2017-08-20T23:09:36.944Z,0
2017-08-20T23:10:17.482Z,0
2017-08-20T23:10:58.019Z,0
2017-08-20T23:11:38.560Z,0
2017-08-20T23:12:19.101Z,0
2017-08-20T23:12:59.645Z,0
2017-08-20T23:13:40.190Z,0
2017-08-20T23:14:20.732Z,0
2017-08-20T23:15:01.273Z,0
2017-08-20T23:15:41.807Z,0
2017-08-20T23:16:22.345Z,0
2017-08-20T23:17:02.889Z,0
2017-08-20T23:17:43.415Z,0
2017-08-20T23:18:23.953Z,0
2017-08-20T23:19:04.513Z,0
2017-08-20T23:19:45.033Z,0
2017-08-20T23:20:25.574Z,0
2017-08-20T23:21:06.111Z,0
2017-08-20T23:21:46.644Z,0
2017-08-20T23:22:27.190Z,0
2017-08-20T23:23:07.726Z,0
2017-08-20T23:23:48.265Z,0
2017-08-20T23:24:28.800Z,0
2017-08-20T23:25:09.342Z,0
2017-08-20T23:25:49.885Z,0
2017-08-20T23:26:30.422Z,0
2017-08-20T23:27:10.963Z,0
2017-08-20T23:27:51.495Z,0
2017-08-20T23:28:32.025Z,0
2017-08-20T23:29:12.565Z,0
2017-08-20T23:29:53.110Z,0
2017-08-20T23:30:33.654Z,0
2017-08-20T23:31:14.194Z,0
2017-08-20T23:31:54.733Z,0
2017-08-20T23:32:35.280Z,0
2017-08-20T23:33:15.804Z,0
2017-08-20T23:33:56.332Z,0
2017-08-20T23:34:36.867Z,0
2017-08-20T23:35:17.408Z,0
2017-08-20T23:35:57.950Z,0
2017-08-20T23:36:38.488Z,0
2017-08-20T23:37:19.027Z,0
2017-08-20T23:37:59.564Z,0
2017-08-20T23:38:40.106Z,0
2017-08-20T23:39:20.651Z,0
2017-08-20T23:40:01.185Z,0
2017-08-20T23:40:41.723Z,0
2017-08-20T23:41:22.265Z,0
2017-08-20T23:42:02.807Z,0
2017-08-20T23:42:43.346Z,0
2017-08-20T23:43:23.882Z,0
2017-08-20T23:44:04.426Z,0
2017-08-20T23:44:44.963Z,0
2017-08-20T23:45:25.503Z,0
2017-08-20T23:46:06.042Z,0
2017-08-20T23:46:46.576Z,0
2017-08-20T23:47:27.122Z,0
2017-08-20T23:48:07.661Z,0
2017-08-20T23:48:48.200Z,0
2017-08-20T23:49:28.738Z,0
2017-08-20T23:50:09.276Z,0
2017-08-20T23:50:49.803Z,0
2017-08-20T23:51:30.338Z,0
2017-08-20T23:52:10.878Z,0
2017-08-20T23:52:51.426Z,0
2017-08-20T23:53:31.978Z,0
2017-08-20T23:54:12.496Z,0
2017-08-20T23:54:53.041Z,0
2017-08-20T23:55:33.576Z,0
2017-08-20T23:56:14.137Z,0
2017-08-20T23:56:54.652Z,0
2017-08-20T23:57:35.190Z,0
2017-08-20T23:58:15.731Z,0
2017-08-20T23:58:56.268Z,0
2017-08-20T23:59:36.803Z,0
